Terminal Aerodrome Forecast
Issued by NWS Upton, NY

Home | Current Version | Previous Version | Text Only | Print | Product List | Glossary On
Versions: 1 2 3 4 5 6 7 8 9 10 11 12 13 14 15 16 17 18 19 20 21 22 23 24 25 26 27
000
FTUS41 KOKX 012000 AAC
TAFEWR
TAF AMD
KEWR 012018Z 0120/0224 VRB04KT 1/2SM SN FZFG BKN007 OVC015
      TEMPO 0121/0201 OVC004
     FM020300 VRB04KT 1SM -FZRA OVC008
     FM020600 VRB05KT 4SM BR OVC010
     FM020900 28008KT P6SM SCT015 BKN025
     FM021200 30013G20KT P6SM SCT025 BKN050
     FM021400 30017G25KT P6SM SCT250=

USA.gov is the U.S. government's official web portal to all federal, state and local government web resources and services.